createdAt,value
2016-05-31T00:00:09.390Z,21.1
2016-05-31T00:00:19.219Z,21.1
2016-05-31T00:00:29.359Z,21
2016-05-31T00:00:39.344Z,21
2016-05-31T00:00:49.346Z,21
2016-05-31T00:00:59.330Z,21
2016-05-31T00:01:09.158Z,21
2016-05-31T00:01:19.158Z,21
2016-05-31T00:01:29.299Z,21
2016-05-31T00:01:39.283Z,21
2016-05-31T00:01:49.286Z,21.1
2016-05-31T00:01:59.270Z,21
2016-05-31T00:02:09.255Z,20.9
2016-05-31T00:02:19.255Z,21
2016-05-31T00:02:29.239Z,21
2016-05-31T00:02:39.224Z,21
2016-05-31T00:02:49.227Z,20.9
2016-05-31T00:02:59.211Z,21
2016-05-31T00:03:09.195Z,20.9
2016-05-31T00:03:19.180Z,21
2016-05-31T00:03:29.164Z,21
2016-05-31T00:03:39.164Z,21
2016-05-31T00:03:49.150Z,20.9
2016-05-31T00:03:58.994Z,21
2016-05-31T00:04:09.150Z,20.8
2016-05-31T00:04:18.963Z,20.9
2016-05-31T00:04:29.104Z,20.9
2016-05-31T00:04:39.104Z,20.9
2016-05-31T00:04:49.091Z,20.9
2016-05-31T00:04:59.075Z,20.9
2016-05-31T00:05:09.075Z,20.9
2016-05-31T00:05:19.060Z,21
2016-05-31T00:05:29.044Z,20.9
2016-05-31T00:05:39.028Z,21
2016-05-31T00:05:49.031Z,21
2016-05-31T00:05:59.016Z,20.9
2016-05-31T00:06:08.844Z,21
2016-05-31T00:06:19.000Z,21
2016-05-31T00:06:28.985Z,20.9
2016-05-31T00:06:38.969Z,20.8
2016-05-31T00:06:48.955Z,20.9
2016-05-31T00:06:58.955Z,20.7
2016-05-31T00:07:08.783Z,21
2016-05-31T00:07:18.783Z,20.9
2016-05-31T00:07:28.924Z,20.9
2016-05-31T00:07:39.440Z,21
2016-05-31T00:07:48.896Z,20.9
2016-05-31T00:07:58.880Z,20.8
2016-05-31T00:08:09.177Z,21
2016-05-31T00:08:18.708Z,21
2016-05-31T00:08:28.693Z,20.9
2016-05-31T00:08:38.849Z,20.9
2016-05-31T00:08:48.836Z,21
2016-05-31T00:08:58.821Z,21
2016-05-31T00:09:08.821Z,20.9
2016-05-31T00:09:18.805Z,21
2016-05-31T00:09:28.789Z,20.9
2016-05-31T00:09:38.633Z,20.9
2016-05-31T00:09:48.761Z,20.9
2016-05-31T00:09:58.761Z,20.9
2016-05-31T00:10:08.761Z,20.8
2016-05-31T00:10:18.730Z,20.9
2016-05-31T00:10:28.730Z,21
2016-05-31T00:10:38.746Z,21
2016-05-31T00:10:48.716Z,21
2016-05-31T00:10:58.701Z,21
2016-05-31T00:11:08.685Z,20.9
2016-05-31T00:11:18.669Z,21
2016-05-31T00:11:28.669Z,21
2016-05-31T00:11:38.654Z,20.9
2016-05-31T00:11:48.641Z,21
2016-05-31T00:11:58.641Z,20.8
2016-05-31T00:12:08.626Z,21
2016-05-31T00:12:18.610Z,20.9
2016-05-31T00:12:28.610Z,20.8
2016-05-31T00:12:38.594Z,21
2016-05-31T00:12:48.596Z,20.8
2016-05-31T00:12:58.581Z,20.8
2016-05-31T00:13:08.549Z,20.8
2016-05-31T00:13:18.549Z,20.8
2016-05-31T00:13:28.534Z,20.9
2016-05-31T00:13:38.518Z,20.9
2016-05-31T00:13:48.521Z,20.9
2016-05-31T00:13:58.506Z,20.9
2016-05-31T00:14:08.490Z,21
2016-05-31T00:14:18.334Z,20.9
2016-05-31T00:14:28.459Z,20.8
2016-05-31T00:14:38.302Z,20.9
2016-05-31T00:14:48.446Z,20.9
2016-05-31T00:14:58.430Z,20.9
2016-05-31T00:15:08.430Z,21
2016-05-31T00:15:18.415Z,20.9
2016-05-31T00:15:28.399Z,21
2016-05-31T00:15:38.399Z,20.9
2016-05-31T00:15:48.387Z,21
2016-05-31T00:15:58.387Z,20.9
2016-05-31T00:16:08.355Z,20.9
2016-05-31T00:16:18.355Z,20.9
2016-05-31T00:16:28.340Z,20.9
2016-05-31T00:16:38.183Z,21
2016-05-31T00:16:48.170Z,20.9
2016-05-31T00:16:58.326Z,21
2016-05-31T00:17:08.326Z,20.9
2016-05-31T00:17:18.279Z,21
2016-05-31T00:17:28.279Z,20.9
2016-05-31T00:17:38.279Z,20.9
2016-05-31T00:17:48.266Z,20.8
2016-05-31T00:17:58.250Z,20.9
2016-05-31T00:18:08.094Z,20.9
2016-05-31T00:18:18.219Z,20.8
2016-05-31T00:18:28.219Z,20.8
2016-05-31T00:18:38.203Z,20.8
2016-05-31T00:18:48.191Z,20.9
2016-05-31T00:18:58.191Z,20.9
2016-05-31T00:19:08.020Z,21
2016-05-31T00:19:18.160Z,20.6
2016-05-31T00:19:28.160Z,20.9
2016-05-31T00:19:38.145Z,20.9
2016-05-31T00:19:47.976Z,20.9
2016-05-31T00:19:57.960Z,20.9
2016-05-31T00:20:08.116Z,21
2016-05-31T00:20:18.101Z,20.9
2016-05-31T00:20:28.085Z,20.9
2016-05-31T00:20:37.913Z,20.9
2016-05-31T00:20:48.071Z,20.9
2016-05-31T00:20:58.056Z,20.9
2016-05-31T00:21:07.884Z,20.9
2016-05-31T00:21:18.040Z,20.8
2016-05-31T00:21:28.025Z,20.9
2016-05-31T00:21:38.009Z,20.9
2016-05-31T00:21:47.995Z,21
2016-05-31T00:21:57.839Z,21
2016-05-31T00:22:07.995Z,20.8
2016-05-31T00:22:18.011Z,20.8
2016-05-31T00:22:27.808Z,20.8
2016-05-31T00:22:38.277Z,20.8
2016-05-31T00:22:47.795Z,20.8
2016-05-31T00:22:57.936Z,20.8
2016-05-31T00:23:07.920Z,20.9
2016-05-31T00:23:18.170Z,20.8
2016-05-31T00:23:28.701Z,20.8
2016-05-31T00:23:37.889Z,21
2016-05-31T00:23:47.875Z,20.9
2016-05-31T00:23:57.860Z,20.9
2016-05-31T00:24:07.860Z,20.8
2016-05-31T00:24:17.688Z,20.9
2016-05-31T00:24:27.828Z,20.8
2016-05-31T00:24:37.813Z,20.8
2016-05-31T00:24:47.661Z,20.8
2016-05-31T00:24:57.801Z,20.8
2016-05-31T00:25:07.786Z,20.8
2016-05-31T00:25:17.770Z,21
2016-05-31T00:25:27.770Z,21
2016-05-31T00:25:37.754Z,21
2016-05-31T00:25:47.756Z,20.9
2016-05-31T00:25:57.741Z,20.9
2016-05-31T00:26:07.725Z,20.9
2016-05-31T00:26:17.709Z,20.9
2016-05-31T00:26:27.553Z,20.9
2016-05-31T00:26:37.694Z,20.7
2016-05-31T00:26:47.681Z,20.8
2016-05-31T00:26:57.681Z,20.9
2016-05-31T00:27:07.666Z,20.8
2016-05-31T00:27:17.494Z,20.8
2016-05-31T00:27:27.634Z,20.9
2016-05-31T00:27:37.634Z,20.8
2016-05-31T00:27:47.605Z,20.8
2016-05-31T00:27:57.605Z,20.9
2016-05-31T00:28:07.589Z,20.8
2016-05-31T00:28:17.433Z,20.9
2016-05-31T00:28:27.418Z,20.9
2016-05-31T00:28:37.558Z,20.8
2016-05-31T00:28:47.547Z,20.9
2016-05-31T00:28:57.547Z,20.7
2016-05-31T00:29:07.547Z,20.9
2016-05-31T00:29:17.515Z,20.8
2016-05-31T00:29:27.515Z,20.8
2016-05-31T00:29:37.500Z,20.8
2016-05-31T00:29:47.486Z,20.9
2016-05-31T00:29:57.486Z,20.8
2016-05-31T00:30:07.470Z,20.7
2016-05-31T00:30:17.455Z,20.7
2016-05-31T00:30:27.455Z,20.8
2016-05-31T00:30:37.439Z,20.9
2016-05-31T00:30:47.427Z,20.9
2016-05-31T00:30:57.411Z,20.7
2016-05-31T00:31:07.255Z,20.7
2016-05-31T00:31:17.395Z,20.8
2016-05-31T00:31:27.395Z,20.7
2016-05-31T00:31:37.380Z,20.8
2016-05-31T00:31:47.366Z,20.8
2016-05-31T00:31:57.350Z,20.8
2016-05-31T00:32:07.335Z,20.9
2016-05-31T00:32:17.335Z,20.7
2016-05-31T00:32:27.319Z,20.8
2016-05-31T00:32:37.163Z,20.9
2016-05-31T00:32:47.307Z,20.7
2016-05-31T00:32:57.291Z,20.8
2016-05-31T00:33:07.275Z,20.8
2016-05-31T00:33:17.260Z,20.8
2016-05-31T00:33:27.260Z,20.7
2016-05-31T00:33:37.088Z,20.8
2016-05-31T00:33:47.231Z,20.7
2016-05-31T00:33:57.075Z,20.7
2016-05-31T00:34:07.060Z,20.7
2016-05-31T00:34:17.200Z,20.7
2016-05-31T00:34:27.185Z,20.7
2016-05-31T00:34:37.185Z,20.8
2016-05-31T00:34:47.172Z,20.8
2016-05-31T00:34:57.156Z,20.8
2016-05-31T00:35:07.156Z,20.7
2016-05-31T00:35:17.141Z,20.8
2016-05-31T00:35:26.969Z,20.8
2016-05-31T00:35:37.109Z,20.8
2016-05-31T00:35:47.111Z,20.8
2016-05-31T00:35:56.940Z,20.7
2016-05-31T00:36:07.096Z,20.8
2016-05-31T00:36:17.080Z,20.6
2016-05-31T00:36:27.065Z,20.8
2016-05-31T00:36:36.893Z,20.8
2016-05-31T00:36:47.036Z,20.7
2016-05-31T00:36:57.036Z,20.5
2016-05-31T00:37:07.021Z,20.7
2016-05-31T00:37:17.239Z,20.6
2016-05-31T00:37:27.239Z,20.5
2016-05-31T00:37:37.427Z,20.6
2016-05-31T00:37:47.320Z,20.6
2016-05-31T00:37:56.976Z,20.6
2016-05-31T00:38:06.820Z,20.6
2016-05-31T00:38:16.945Z,20.5
2016-05-31T00:38:27.116Z,20.5
2016-05-31T00:38:36.929Z,20.5
2016-05-31T00:38:46.917Z,20.5
2016-05-31T00:38:56.902Z,20.5
2016-05-31T00:39:06.886Z,20.5
2016-05-31T00:39:16.886Z,20.6
2016-05-31T00:39:26.870Z,20.6
2016-05-31T00:39:36.870Z,20.5
2016-05-31T00:39:46.857Z,20.5
2016-05-31T00:39:56.841Z,20.4
2016-05-31T00:40:06.826Z,20.5
2016-05-31T00:40:16.810Z,20.4
2016-05-31T00:40:26.810Z,20.4
2016-05-31T00:40:36.794Z,20.4
2016-05-31T00:40:46.779Z,20.5
2016-05-31T00:40:56.765Z,20.5
2016-05-31T00:41:06.765Z,20.4
2016-05-31T00:41:16.749Z,20.5
2016-05-31T00:41:26.593Z,20.5
2016-05-31T00:41:36.734Z,20.4
2016-05-31T00:41:46.718Z,20.4
2016-05-31T00:41:56.706Z,20.4
2016-05-31T00:42:06.706Z,20.4
2016-05-31T00:42:16.690Z,20.4
2016-05-31T00:42:26.674Z,20.5
2016-05-31T00:42:36.674Z,20.4
2016-05-31T00:42:46.659Z,20.4
2016-05-31T00:42:56.646Z,20.4
2016-05-31T00:43:06.630Z,20.4
2016-05-31T00:43:16.474Z,20.5
2016-05-31T00:43:26.615Z,20.5
2016-05-31T00:43:36.443Z,20.4
2016-05-31T00:43:46.599Z,20.4
2016-05-31T00:43:56.587Z,20.4
2016-05-31T00:44:06.571Z,20.5
2016-05-31T00:44:16.571Z,20.4
2016-05-31T00:44:26.555Z,20.4
2016-05-31T00:44:36.540Z,20.5
2016-05-31T00:44:46.540Z,20.4
2016-05-31T00:44:56.526Z,20.4
2016-05-31T00:45:06.510Z,20.4
2016-05-31T00:45:16.510Z,20.5
2016-05-31T00:45:26.339Z,20.4
2016-05-31T00:45:36.479Z,20.3
2016-05-31T00:45:46.495Z,20.3
2016-05-31T00:45:56.310Z,20.4
2016-05-31T00:46:06.451Z,20.4
2016-05-31T00:46:16.435Z,20.3
2016-05-31T00:46:26.279Z,20.4
2016-05-31T00:46:36.420Z,20.4
2016-05-31T00:46:46.404Z,20.4
2016-05-31T00:46:56.391Z,20.3
2016-05-31T00:47:06.376Z,20.4
2016-05-31T00:47:16.220Z,20.3
2016-05-31T00:47:26.360Z,20.4
2016-05-31T00:47:36.345Z,20.4
2016-05-31T00:47:46.345Z,20.4
2016-05-31T00:47:56.332Z,20.4
2016-05-31T00:48:06.332Z,20.3
2016-05-31T00:48:16.301Z,20.4
2016-05-31T00:48:26.144Z,20.4
2016-05-31T00:48:36.285Z,20.4
2016-05-31T00:48:46.269Z,20.4
2016-05-31T00:48:56.272Z,20.4
2016-05-31T00:49:06.257Z,20.3
2016-05-31T00:49:16.241Z,20.3
2016-05-31T00:49:26.241Z,20.3
2016-05-31T00:49:36.226Z,20.3
2016-05-31T00:49:46.210Z,20.4
2016-05-31T00:49:56.228Z,20.3
2016-05-31T00:50:06.040Z,20.3
2016-05-31T00:50:16.181Z,20.4
2016-05-31T00:50:26.165Z,20.4
2016-05-31T00:50:36.149Z,20.3
2016-05-31T00:50:46.149Z,20.3
2016-05-31T00:50:55.980Z,20.3
2016-05-31T00:51:06.120Z,20.3
2016-05-31T00:51:16.120Z,20.3
2016-05-31T00:51:25.948Z,20.4
2016-05-31T00:51:36.089Z,20.3
2016-05-31T00:51:45.933Z,20.3
2016-05-31T00:51:56.077Z,20.3
2016-05-31T00:52:06.062Z,20.3
2016-05-31T00:52:16.062Z,20.3
2016-05-31T00:52:26.218Z,20.4
2016-05-31T00:52:36.046Z,20.4
2016-05-31T00:52:46.015Z,20.2
2016-05-31T00:52:56.017Z,20.3
2016-05-31T00:53:06.001Z,20.2
2016-05-31T00:53:16.001Z,20.2
2016-05-31T00:53:25.986Z,20.3
2016-05-31T00:53:35.986Z,20.3
2016-05-31T00:53:45.798Z,20.3
2016-05-31T00:53:55.942Z,20.2
2016-05-31T00:54:05.942Z,20.2
2016-05-31T00:54:15.926Z,20.2
2016-05-31T00:54:25.754Z,20.3
2016-05-31T00:54:35.895Z,20.2
2016-05-31T00:54:45.895Z,20.2
2016-05-31T00:54:55.881Z,20.3
2016-05-31T00:55:05.881Z,20.3
2016-05-31T00:55:15.866Z,20.3
2016-05-31T00:55:25.850Z,20.2
2016-05-31T00:55:35.694Z,20.4
2016-05-31T00:55:45.834Z,20.2
2016-05-31T00:55:55.822Z,20.1
2016-05-31T00:56:05.806Z,20.3
2016-05-31T00:56:15.790Z,20.3
2016-05-31T00:56:25.790Z,20.3
2016-05-31T00:56:35.775Z,20.2
2016-05-31T00:56:45.759Z,20.3
2016-05-31T00:56:55.590Z,20.2
2016-05-31T00:57:05.747Z,20.3
2016-05-31T00:57:15.731Z,20.3
2016-05-31T00:57:25.715Z,20.2
2016-05-31T00:57:35.715Z,20.2
2016-05-31T00:57:45.700Z,20.4
2016-05-31T00:57:55.686Z,20.2
2016-05-31T00:58:05.530Z,20.2
2016-05-31T00:58:15.514Z,20.2
2016-05-31T00:58:25.655Z,20.2
2016-05-31T00:58:35.499Z,20.3
2016-05-31T00:58:45.639Z,20.2
2016-05-31T00:58:55.470Z,20.2
2016-05-31T00:59:05.611Z,20.2
2016-05-31T00:59:15.611Z,20.2
2016-05-31T00:59:25.595Z,20.2
2016-05-31T00:59:35.580Z,20.2
2016-05-31T00:59:45.564Z,20.1
2016-05-31T00:59:55.567Z,20.2
2016-05-31T01:00:05.551Z,20.2
2016-05-31T01:00:15.551Z,20.2
2016-05-31T01:00:25.536Z,20.2
2016-05-31T01:00:35.520Z,20.1
2016-05-31T01:00:45.520Z,20.2
2016-05-31T01:00:55.507Z,20.2
2016-05-31T01:01:05.491Z,20.2
2016-05-31T01:01:15.475Z,20.1
2016-05-31T01:01:25.475Z,20.1
2016-05-31T01:01:35.303Z,20.2
2016-05-31T01:01:45.444Z,20.3
2016-05-31T01:01:55.291Z,20.1
2016-05-31T01:02:05.431Z,20.2
2016-05-31T01:02:15.260Z,20.2
2016-05-31T01:02:25.400Z,20.2
2016-05-31T01:02:35.385Z,20.2
2016-05-31T01:02:45.385Z,20.2
2016-05-31T01:02:55.372Z,20.2
2016-05-31T01:03:05.356Z,20.2
2016-05-31T01:03:15.356Z,20.2
2016-05-31T01:03:25.184Z,20.1
2016-05-31T01:03:35.325Z,20.2
2016-05-31T01:03:45.325Z,20.1
2016-05-31T01:03:55.312Z,20.1
2016-05-31T01:04:05.297Z,20.1
2016-05-31T01:04:15.281Z,20.2
2016-05-31T01:04:25.125Z,20.1
2016-05-31T01:04:35.266Z,20.1
2016-05-31T01:04:45.250Z,20.1
2016-05-31T01:04:55.236Z,20.1
2016-05-31T01:05:05.236Z,20.2
2016-05-31T01:05:15.221Z,20.2
2016-05-31T01:05:25.221Z,20.2
2016-05-31T01:05:35.205Z,20.2
2016-05-31T01:05:45.189Z,20.1
2016-05-31T01:05:55.192Z,20.2
2016-05-31T01:06:05.161Z,20.2
2016-05-31T01:06:15.161Z,20.1
2016-05-31T01:06:24.989Z,20.1
2016-05-31T01:06:34.989Z,20.2
2016-05-31T01:06:45.130Z,20.1
2016-05-31T01:06:54.977Z,20.1
2016-05-31T01:07:05.117Z,20.1
2016-05-31T01:07:15.102Z,20.2
2016-05-31T01:07:25.258Z,20.1
2016-05-31T01:07:35.070Z,20.1
2016-05-31T01:07:45.055Z,20.1
2016-05-31T01:07:55.072Z,20.2
2016-05-31T01:08:04.901Z,20.1
2016-05-31T01:08:15.697Z,19.9
2016-05-31T01:08:24.869Z,20.1
2016-05-31T01:08:35.010Z,20
2016-05-31T01:08:44.994Z,20.1
2016-05-31T01:08:54.982Z,20.2
2016-05-31T01:09:04.982Z,20.1
2016-05-31T01:09:14.966Z,20.1
2016-05-31T01:09:24.966Z,20.1
2016-05-31T01:09:34.935Z,20.1
2016-05-31T01:09:44.935Z,20.1
2016-05-31T01:09:54.922Z,20
2016-05-31T01:10:04.766Z,20.1
2016-05-31T01:10:14.907Z,20
2016-05-31T01:10:24.891Z,20.1
2016-05-31T01:10:34.875Z,20.1
2016-05-31T01:10:44.875Z,20
2016-05-31T01:10:54.862Z,20.1
2016-05-31T01:11:04.846Z,20
2016-05-31T01:11:14.862Z,20.2
2016-05-31T01:11:24.830Z,20
2016-05-31T01:11:34.815Z,20
2016-05-31T01:11:44.799Z,20.1
2016-05-31T01:11:54.787Z,20.1
2016-05-31T01:12:04.787Z,20.1
2016-05-31T01:12:14.771Z,20
2016-05-31T01:12:24.599Z,20
2016-05-31T01:12:34.755Z,20.1
2016-05-31T01:12:44.740Z,20
2016-05-31T01:12:54.727Z,20
2016-05-31T01:13:04.727Z,20
2016-05-31T01:13:14.711Z,20
2016-05-31T01:13:24.696Z,20
2016-05-31T01:13:34.540Z,20
2016-05-31T01:13:44.680Z,20.1
2016-05-31T01:13:54.667Z,20.2
2016-05-31T01:14:04.526Z,20.1
2016-05-31T01:14:14.651Z,20.1
2016-05-31T01:14:24.635Z,20
2016-05-31T01:14:34.620Z,20.1
2016-05-31T01:14:44.620Z,20.1
2016-05-31T01:14:54.451Z,20.1
2016-05-31T01:15:04.591Z,20
2016-05-31T01:15:14.435Z,20
2016-05-31T01:15:24.576Z,20
2016-05-31T01:15:34.560Z,20
2016-05-31T01:15:44.388Z,20
2016-05-31T01:15:54.548Z,20.1
2016-05-31T01:16:04.532Z,20
2016-05-31T01:16:14.516Z,20.1
2016-05-31T01:16:24.516Z,20
2016-05-31T01:16:34.485Z,20
2016-05-31T01:16:44.329Z,20
2016-05-31T01:16:54.471Z,20
2016-05-31T01:17:04.471Z,20
2016-05-31T01:17:14.300Z,20
2016-05-31T01:17:24.440Z,20.1
2016-05-31T01:17:34.425Z,19.9
2016-05-31T01:17:44.425Z,20
2016-05-31T01:17:54.396Z,20
2016-05-31T01:18:04.396Z,20
2016-05-31T01:18:14.381Z,20
2016-05-31T01:18:24.381Z,20
2016-05-31T01:18:34.365Z,20
2016-05-31T01:18:44.365Z,20.1
2016-05-31T01:18:54.352Z,20
2016-05-31T01:19:04.337Z,20.1
2016-05-31T01:19:14.165Z,20
2016-05-31T01:19:24.306Z,20
2016-05-31T01:19:34.306Z,20
2016-05-31T01:19:44.134Z,20
2016-05-31T01:19:54.276Z,20
2016-05-31T01:20:13.854Z,19.9
2016-05-31T01:20:18.854Z,19.9
2016-05-31T01:20:28.854Z,20
2016-05-31T01:20:38.870Z,19.9
2016-05-31T01:20:48.842Z,20
2016-05-31T01:20:58.811Z,19.9
2016-05-31T01:21:08.811Z,20
2016-05-31T01:21:18.795Z,20
2016-05-31T01:21:28.639Z,20
2016-05-31T01:21:38.779Z,20
2016-05-31T01:21:48.764Z,19.9
2016-05-31T01:21:58.751Z,20
2016-05-31T01:22:08.751Z,19.9
2016-05-31T01:22:19.204Z,19.9
2016-05-31T01:22:37.595Z,19.9
2016-05-31T01:22:43.189Z,19.9
2016-05-31T01:22:53.456Z,19.9
2016-05-31T01:23:02.941Z,19.9
2016-05-31T01:23:13.706Z,20
2016-05-31T01:23:23.019Z,19.9
2016-05-31T01:23:32.909Z,20
2016-05-31T01:23:42.878Z,19.9
2016-05-31T01:23:52.882Z,19.9
2016-05-31T01:24:02.866Z,19.9
2016-05-31T01:24:12.710Z,19.9
2016-05-31T01:24:22.851Z,19.9
2016-05-31T01:24:32.851Z,19.9
2016-05-31T01:24:42.679Z,19.9
2016-05-31T01:24:52.806Z,19.9
2016-05-31T01:25:02.837Z,19.9
2016-05-31T01:25:12.790Z,19.9
2016-05-31T01:25:22.775Z,20
2016-05-31T01:25:32.806Z,19.9
2016-05-31T01:25:42.759Z,20
2016-05-31T01:25:52.746Z,19.9
2016-05-31T01:26:02.746Z,19.9
2016-05-31T01:26:12.746Z,19.9
2016-05-31T01:26:22.746Z,19.9
2016-05-31T01:26:32.543Z,19.9
2016-05-31T01:26:42.715Z,19.9
2016-05-31T01:26:52.686Z,20
2016-05-31T01:27:02.514Z,20
2016-05-31T01:27:12.655Z,19.9
2016-05-31T01:27:22.655Z,20
2016-05-31T01:27:32.639Z,19.9
2016-05-31T01:27:42.623Z,19.8
2016-05-31T01:27:52.611Z,20
2016-05-31T01:28:02.611Z,19.9
2016-05-31T01:28:12.595Z,20
2016-05-31T01:28:22.580Z,19.9
2016-05-31T01:28:32.580Z,19.9
2016-05-31T01:28:42.564Z,20
2016-05-31T01:28:52.551Z,19.9
2016-05-31T01:29:02.551Z,19.9
2016-05-31T01:29:12.536Z,20
2016-05-31T01:29:22.520Z,19.9
2016-05-31T01:29:32.520Z,19.9
2016-05-31T01:29:42.489Z,20
2016-05-31T01:29:52.492Z,19.9
2016-05-31T01:30:02.476Z,19.9
2016-05-31T01:30:12.461Z,19.8
2016-05-31T01:30:22.461Z,20
2016-05-31T01:30:32.445Z,19.9
2016-05-31T01:30:42.429Z,19.9
2016-05-31T01:30:52.431Z,19.9
2016-05-31T01:31:02.416Z,19.8
2016-05-31T01:31:12.400Z,19.9
2016-05-31T01:31:22.384Z,19.9
2016-05-31T01:31:32.384Z,19.9
2016-05-31T01:31:42.369Z,19.8
2016-05-31T01:31:52.356Z,19.8
2016-05-31T01:32:02.200Z,19.9
2016-05-31T01:32:12.184Z,19.9
2016-05-31T01:32:22.325Z,19.9
2016-05-31T01:32:32.309Z,19.9
2016-05-31T01:32:42.309Z,19.8
2016-05-31T01:32:52.296Z,19.9
2016-05-31T01:33:02.280Z,19.8
2016-05-31T01:33:12.280Z,19.9
2016-05-31T01:33:22.264Z,19.9
2016-05-31T01:33:32.249Z,19.8
2016-05-31T01:33:42.233Z,19.9
2016-05-31T01:33:52.237Z,19.9
2016-05-31T01:34:02.222Z,19.9
2016-05-31T01:34:12.206Z,19.8
2016-05-31T01:34:22.206Z,20
2016-05-31T01:34:32.190Z,19.9
2016-05-31T01:34:42.175Z,19.8
2016-05-31T01:34:52.177Z,19.9
2016-05-31T01:35:02.161Z,19.9
2016-05-31T01:35:12.145Z,19.9
2016-05-31T01:35:22.130Z,19.9
2016-05-31T01:35:32.130Z,19.9
2016-05-31T01:35:42.114Z,20
2016-05-31T01:35:51.960Z,19.8
2016-05-31T01:36:02.101Z,19.9
2016-05-31T01:36:12.085Z,19.9
2016-05-31T01:36:22.069Z,19.8
2016-05-31T01:36:31.897Z,19.9
2016-05-31T01:36:42.054Z,19.9
2016-05-31T01:36:52.042Z,19.9
2016-05-31T01:37:02.026Z,19.8
2016-05-31T01:37:12.026Z,20
2016-05-31T01:37:22.026Z,19.9
2016-05-31T01:37:32.292Z,19.8
2016-05-31T01:37:41.855Z,19.9
2016-05-31T01:37:51.982Z,19.9
2016-05-31T01:38:01.966Z,19.9
2016-05-31T01:38:11.794Z,19.8
2016-05-31T01:38:21.950Z,19.9
2016-05-31T01:38:31.935Z,19.8
2016-05-31T01:38:41.919Z,19.9
2016-05-31T01:38:51.906Z,19.8
2016-05-31T01:39:01.906Z,19.8
2016-05-31T01:39:11.735Z,19.9
2016-05-31T01:39:21.891Z,19.9
2016-05-31T01:39:31.860Z,19.9
2016-05-31T01:39:41.875Z,19.8
2016-05-31T01:39:51.690Z,19.9
2016-05-31T01:40:01.846Z,19.9
2016-05-31T01:40:11.830Z,19.9
2016-05-31T01:40:21.815Z,19.9
2016-05-31T01:40:31.815Z,19.9
2016-05-31T01:40:41.783Z,19.9
2016-05-31T01:40:51.786Z,19.9
2016-05-31T01:41:01.771Z,19.9
2016-05-31T01:41:11.755Z,19.8
2016-05-31T01:41:21.755Z,19.9
2016-05-31T01:41:31.740Z,19.8
2016-05-31T01:41:41.568Z,19.9
2016-05-31T01:41:51.570Z,19.9
2016-05-31T01:42:01.726Z,19.8
2016-05-31T01:42:11.695Z,19.8
2016-05-31T01:42:21.679Z,19.9
2016-05-31T01:42:31.679Z,19.8
2016-05-31T01:42:41.507Z,19.8
2016-05-31T01:42:51.495Z,19.8
2016-05-31T01:43:01.635Z,19.8
2016-05-31T01:43:11.479Z,19.8
2016-05-31T01:43:21.620Z,19.8
2016-05-31T01:43:31.463Z,19.9
2016-05-31T01:43:41.604Z,19.8
2016-05-31T01:43:51.591Z,19.8
2016-05-31T01:44:01.576Z,19.7
2016-05-31T01:44:11.576Z,19.8
2016-05-31T01:44:21.560Z,19.7
2016-05-31T01:44:31.544Z,19.8
2016-05-31T01:44:41.529Z,19.9
2016-05-31T01:44:51.516Z,19.8
2016-05-31T01:45:01.516Z,19.8
2016-05-31T01:45:11.501Z,19.9
2016-05-31T01:45:21.501Z,19.8
2016-05-31T01:45:31.485Z,19.8
2016-05-31T01:45:41.469Z,19.8
2016-05-31T01:45:51.299Z,19.8
2016-05-31T01:46:01.456Z,19.8
2016-05-31T01:46:11.440Z,19.8
2016-05-31T01:46:21.424Z,19.8
2016-05-31T01:46:31.409Z,19.8
2016-05-31T01:46:41.409Z,19.9
2016-05-31T01:46:51.396Z,19.8
2016-05-31T01:47:01.396Z,19.8
2016-05-31T01:47:11.381Z,19.9
2016-05-31T01:47:21.365Z,19.6
2016-05-31T01:47:31.349Z,19.8
2016-05-31T01:47:41.334Z,19.9
2016-05-31T01:47:51.337Z,19.9
2016-05-31T01:48:01.321Z,19.8
2016-05-31T01:48:11.165Z,19.9
2016-05-31T01:48:21.305Z,19.6
2016-05-31T01:48:31.290Z,19.7
2016-05-31T01:48:41.274Z,19.7
2016-05-31T01:48:51.277Z,19.9
2016-05-31T01:49:01.262Z,19.8
2016-05-31T01:49:11.246Z,19.7
2016-05-31T01:49:21.230Z,19.8
2016-05-31T01:49:31.215Z,19.8
2016-05-31T01:49:41.058Z,19.7
2016-05-31T01:49:51.217Z,19.7
2016-05-31T01:50:01.029Z,19.7
2016-05-31T01:50:11.170Z,19.6
2016-05-31T01:50:21.170Z,19.8
2016-05-31T01:50:31.014Z,19.8
2016-05-31T01:50:41.139Z,19.6
2016-05-31T01:50:51.142Z,19.8
2016-05-31T01:51:01.126Z,19.7
2016-05-31T01:51:11.110Z,19.7
2016-05-31T01:51:21.095Z,19.8
2016-05-31T01:51:31.110Z,19.7
2016-05-31T01:51:40.938Z,19.8
2016-05-31T01:51:51.082Z,19.6
2016-05-31T01:52:00.910Z,19.7
2016-05-31T01:52:11.051Z,19.7
2016-05-31T01:52:21.270Z,19.7
2016-05-31T01:52:31.410Z,19.7
2016-05-31T01:52:41.020Z,19.7
2016-05-31T01:52:50.865Z,19.7
2016-05-31T01:53:00.850Z,19.6
2016-05-31T01:53:12.131Z,19.8
2016-05-31T01:53:21.397Z,19.8
2016-05-31T01:53:31.381Z,19.6
2016-05-31T01:53:40.959Z,19.7
2016-05-31T01:53:50.946Z,19.6
2016-05-31T01:54:00.931Z,19.6
2016-05-31T01:54:10.931Z,19.7
2016-05-31T01:54:20.915Z,19.6
2016-05-31T01:54:30.900Z,19.7
2016-05-31T01:54:40.884Z,19.7
2016-05-31T01:54:50.887Z,19.6
2016-05-31T01:55:00.871Z,19.7
2016-05-31T01:55:10.856Z,19.7
2016-05-31T01:55:20.856Z,19.6
2016-05-31T01:55:30.684Z,19.7
2016-05-31T01:55:40.824Z,19.6
2016-05-31T01:55:50.809Z,19.7
2016-05-31T01:56:00.796Z,19.6
2016-05-31T01:56:10.796Z,19.6
2016-05-31T01:56:20.640Z,19.6
2016-05-31T01:56:30.765Z,19.6
2016-05-31T01:56:40.609Z,19.6
2016-05-31T01:56:50.749Z,19.6
2016-05-31T01:57:00.736Z,19.7
2016-05-31T01:57:10.736Z,19.6
2016-05-31T01:57:20.579Z,19.7
2016-05-31T01:57:30.704Z,19.6
2016-05-31T01:57:40.689Z,19.6
2016-05-31T01:57:50.704Z,19.6
2016-05-31T01:58:00.676Z,19.6
2016-05-31T01:58:10.676Z,19.6
2016-05-31T01:58:20.504Z,19.6
2016-05-31T01:58:30.645Z,19.6
2016-05-31T01:58:40.645Z,19.6
2016-05-31T01:58:50.629Z,19.6
2016-05-31T01:59:00.459Z,19.6
2016-05-31T01:59:10.600Z,19.6
2016-05-31T01:59:20.584Z,19.5
2016-05-31T01:59:30.584Z,19.6
2016-05-31T01:59:40.413Z,19.5
2016-05-31T01:59:50.553Z,19.6
2016-05-31T02:00:00.556Z,19.6
2016-05-31T02:00:10.541Z,19.6
2016-05-31T02:00:20.369Z,19.6
2016-05-31T02:00:30.369Z,19.6
2016-05-31T02:00:40.509Z,19.5
2016-05-31T02:00:50.494Z,19.6
2016-05-31T02:01:00.481Z,19.6
2016-05-31T02:01:10.481Z,19.5
2016-05-31T02:01:20.465Z,19.6
2016-05-31T02:01:30.450Z,19.6
2016-05-31T02:01:40.434Z,19.6
2016-05-31T02:01:50.434Z,19.5
2016-05-31T02:02:00.265Z,19.5
2016-05-31T02:02:10.250Z,19.7
2016-05-31T02:02:20.406Z,19.5
2016-05-31T02:02:30.390Z,19.5
2016-05-31T02:02:40.375Z,19.5
2016-05-31T02:02:50.390Z,19.6
2016-05-31T02:03:00.361Z,19.5
2016-05-31T02:03:10.361Z,19.6
2016-05-31T02:03:20.330Z,19.5
2016-05-31T02:03:30.314Z,19.4
2016-05-31T02:03:40.314Z,19.5
2016-05-31T02:03:50.299Z,19.6
2016-05-31T02:04:00.286Z,19.5
2016-05-31T02:04:10.286Z,19.5
2016-05-31T02:04:20.270Z,19.5
2016-05-31T02:04:30.098Z,19.6
2016-05-31T02:04:40.255Z,19.5
2016-05-31T02:04:50.083Z,19.5
2016-05-31T02:05:00.225Z,19.5
2016-05-31T02:05:10.210Z,19.6
2016-05-31T02:05:20.210Z,19.5
2016-05-31T02:05:30.194Z,19.5
2016-05-31T02:05:40.022Z,19.5
2016-05-31T02:05:50.163Z,19.5
2016-05-31T02:06:00.167Z,19.5
2016-05-31T02:06:10.151Z,19.5
2016-05-31T02:06:20.136Z,19.5
2016-05-31T02:06:30.136Z,19.5
2016-05-31T02:06:40.120Z,19.6
2016-05-31T02:06:50.104Z,19.5
2016-05-31T02:07:00.106Z,19.5
2016-05-31T02:07:10.091Z,19.5
2016-05-31T02:07:20.091Z,19.4
2016-05-31T02:07:30.075Z,19.6
2016-05-31T02:07:40.388Z,19.4
2016-05-31T02:07:50.638Z,19.6
2016-05-31T02:08:00.030Z,19.6
2016-05-31T02:08:09.874Z,19.4
2016-05-31T02:08:20.015Z,19.5
2016-05-31T02:08:30.546Z,19.5
2016-05-31T02:08:39.983Z,19.6
2016-05-31T02:08:49.968Z,19.5
2016-05-31T02:08:59.971Z,19.4
2016-05-31T02:09:09.955Z,19.6
2016-05-31T02:09:19.940Z,19.5
2016-05-31T02:09:29.940Z,19.5
2016-05-31T02:09:39.924Z,19.5
2016-05-31T02:09:49.752Z,19.4
2016-05-31T02:09:59.755Z,19.4
2016-05-31T02:10:09.896Z,19.5
2016-05-31T02:10:19.880Z,19.5
2016-05-31T02:10:29.880Z,19.6
2016-05-31T02:10:39.880Z,19.4
2016-05-31T02:10:49.693Z,19.4
2016-05-31T02:10:59.852Z,19.5
2016-05-31T02:11:09.821Z,19.4
2016-05-31T02:11:19.821Z,19.4
2016-05-31T02:11:29.805Z,19.5
2016-05-31T02:11:39.789Z,19.4
2016-05-31T02:11:49.633Z,19.5
2016-05-31T02:11:59.777Z,19.5
2016-05-31T02:12:09.761Z,19.5
2016-05-31T02:12:19.745Z,19.5
2016-05-31T02:12:29.761Z,19.4
2016-05-31T02:12:39.730Z,19.4
2016-05-31T02:12:49.714Z,19.4
2016-05-31T02:12:59.560Z,19.5
2016-05-31T02:13:09.701Z,19.4
2016-05-31T02:13:19.701Z,19.3
2016-05-31T02:13:29.685Z,19.5
2016-05-31T02:13:39.669Z,19.4
2016-05-31T02:13:49.669Z,19.5
2016-05-31T02:13:59.641Z,19.4
2016-05-31T02:14:09.641Z,19.4
2016-05-31T02:14:19.625Z,19.5
2016-05-31T02:14:29.610Z,19.4